Time;durP1;ratioP1;P1;durP2;ratioP2;P2;SDS_P1;SDS_P2;PMS_P1;PMS_P2;Temp;Humidity;BMP_temperature;BMP_pressure;BME280_temperature;BME280_humidity;BME280_pressure;Samples;Min_cycle;Max_cycle;Signal;HPM_P1;HPM_P2
2022/01/07 00:00:22;;;;;;;13.68;6.93;;;;;;;2.98;85.58;101390.97;5046731;28;20040;-78
2022/01/07 00:02:51;;;;;;;13.77;6.72;;;;;;;2.81;85.57;101388.91;5064569;28;20382;-76
2022/01/07 00:05:17;;;;;;;15.25;7.00;;;;;;;2.91;86.73;101381.50;5047870;28;20043;-77
2022/01/07 00:07:42;;;;;;;18.77;7.13;;;;;;;2.78;86.33;101386.38;5046568;28;20154;-77
2022/01/07 00:10:09;;;;;;;14.50;5.65;;;;;;;3.02;85.07;101382.88;5060154;28;20373;-78
2022/01/07 00:12:35;;;;;;;13.25;6.72;;;;;;;3.07;84.43;101380.91;5048237;28;20024;-77
2022/01/07 00:15:00;;;;;;;15.95;6.90;;;;;;;3.37;82.86;101384.19;5066550;28;20481;-79
2022/01/07 00:17:26;;;;;;;15.77;6.18;;;;;;;3.05;84.73;101380.09;5081512;28;20471;-78
2022/01/07 00:19:51;;;;;;;15.10;6.63;;;;;;;2.79;84.69;101373.97;5045697;28;20147;-78
2022/01/07 00:22:16;;;;;;;17.90;7.57;;;;;;;3.24;83.54;101367.00;5064504;28;20043;-77
2022/01/07 00:24:41;;;;;;;16.80;6.00;;;;;;;3.08;84.64;101370.25;5062600;28;20036;-75
2022/01/07 00:27:07;;;;;;;16.73;8.15;;;;;;;3.06;85.13;101381.81;5064221;28;20063;-77
2022/01/07 00:29:32;;;;;;;16.45;6.43;;;;;;;2.91;83.71;101330.25;5061687;28;20070;-78
2022/01/07 00:31:57;;;;;;;19.77;5.00;;;;;;;2.84;85.92;101374.66;5056889;28;20437;-75
2022/01/07 00:34:23;;;;;;;11.20;4.78;;;;;;;2.35;88.80;101369.38;5063906;28;20646;-77
2022/01/07 00:36:48;;;;;;;15.65;7.07;;;;;;;2.70;88.17;101362.78;5065572;28;20467;-77
2022/01/07 00:39:13;;;;;;;17.30;7.40;;;;;;;2.62;90.06;101364.84;5046361;28;20037;-76
2022/01/07 00:41:39;;;;;;;16.95;7.80;;;;;;;2.58;88.86;101347.31;5065894;28;20028;-77
2022/01/07 00:44:04;;;;;;;19.95;7.97;;;;;;;2.42;90.81;101349.66;5063478;28;20087;-79
2022/01/07 00:46:29;;;;;;;16.60;6.85;;;;;;;2.24;92.59;101330.84;5059905;28;20069;-76
2022/01/07 00:48:55;;;;;;;22.98;7.38;;;;;;;1.91;94.39;101327.56;5064095;28;20071;-75
2022/01/07 00:51:20;;;;;;;17.15;8.25;;;;;;;2.29;93.82;101335.13;5046350;28;20457;-76
2022/01/07 00:53:45;;;;;;;12.68;6.40;;;;;;;2.08;94.09;101322.56;5048473;28;20827;-77
2022/01/07 00:56:11;;;;;;;13.82;6.07;;;;;;;2.22;93.63;101330.03;5063401;28;20807;-77
2022/01/07 00:58:36;;;;;;;14.40;7.68;;;;;;;2.22;93.47;101326.53;5056612;28;20491;-76
2022/01/07 01:01:02;;;;;;;15.18;6.05;;;;;;;2.02;94.85;101317.47;5046705;28;20027;-75
2022/01/07 01:03:27;;;;;;;18.17;7.43;;;;;;;2.12;95.96;101322.44;5042272;28;20078;-76
2022/01/07 01:05:53;;;;;;;15.13;7.25;;;;;;;2.25;94.88;101316.66;5049121;28;20423;-76
2022/01/07 01:08:18;;;;;;;14.35;7.68;;;;;;;2.05;96.41;101309.41;5048894;28;20028;-77
2022/01/07 01:10:43;;;;;;;21.55;6.90;;;;;;;2.06;97.75;101305.00;5060286;28;20505;-78
2022/01/07 01:13:09;;;;;;;16.60;7.25;;;;;;;1.84;98.95;101311.03;5048253;28;20040;-76
2022/01/07 01:15:35;;;;;;;16.65;6.80;;;;;;;1.86;98.61;101303.88;5063442;28;20025;-79
2022/01/07 01:18:00;;;;;;;20.08;8.82;;;;;;;1.82;99.62;101278.44;5065865;28;20038;-78
2022/01/07 01:20:27;;;;;;;18.23;7.35;;;;;;;1.77;99.66;101293.63;5046533;28;20063;-74
2022/01/07 01:22:52;;;;;;;18.17;7.40;;;;;;;1.85;99.80;101288.06;5062233;28;20065;-78
2022/01/07 01:25:18;;;;;;;17.17;7.28;;;;;;;1.81;100.00;101276.72;5065537;28;21086;-76
2022/01/07 01:27:43;;;;;;;19.67;8.38;;;;;;;1.97;99.92;101273.53;5065465;28;20020;-75
2022/01/07 01:30:11;;;;;;;20.63;10.15;;;;;;;2.38;98.25;101253.50;5047931;28;20025;-75
2022/01/07 01:32:37;;;;;;;17.48;7.57;;;;;;;1.85;98.79;101261.56;5045543;28;20119;-76
2022/01/07 01:35:04;;;;;;;18.45;8.23;;;;;;;1.99;99.11;101283.13;5061388;28;20024;-78
2022/01/07 01:37:30;;;;;;;16.10;6.90;;;;;;;1.86;99.01;101258.00;5057920;28;20328;-77
2022/01/07 01:39:56;;;;;;;20.00;7.88;;;;;;;2.07;99.25;101253.75;5063705;28;20066;-79
2022/01/07 01:42:21;;;;;;;20.02;9.50;;;;;;;2.06;98.76;101249.38;5045748;28;20159;-73
2022/01/07 01:44:47;;;;;;;22.00;8.70;;;;;;;2.10;97.81;101246.56;5044629;28;20123;-76
2022/01/07 01:47:12;;;;;;;15.65;8.45;;;;;;;2.17;97.40;101227.78;5061375;28;20133;-78
2022/01/07 01:49:38;;;;;;;16.67;8.10;;;;;;;2.10;97.11;101229.81;5056575;28;20039;-78
2022/01/07 01:52:03;;;;;;;15.43;6.78;;;;;;;2.01;97.00;101228.31;5061437;28;20115;-76
2022/01/07 01:54:29;;;;;;;21.35;7.30;;;;;;;2.28;96.63;101240.66;5066308;28;20033;-77
2022/01/07 01:56:54;;;;;;;13.43;6.07;;;;;;;2.08;97.64;101223.69;5062745;28;20107;-79
2022/01/07 01:59:27;;;;;;;18.58;6.57;;;;;;;2.30;96.67;101215.81;5065992;28;20098;-77
2022/01/07 02:01:52;;;;;;;17.52;7.03;;;;;;;2.30;95.08;101209.66;5057981;28;20480;-78
2022/01/07 02:04:18;;;;;;;13.88;5.80;;;;;;;2.17;95.26;101199.50;5060116;28;20489;-76
2022/01/07 02:06:43;;;;;;;20.20;7.85;;;;;;;2.35;94.94;101205.91;5063882;28;20024;-79
2022/01/07 02:09:08;;;;;;;11.40;5.82;;;;;;;2.16;95.38;101187.16;5064849;28;20032;-78
2022/01/07 02:11:34;;;;;;;15.43;6.90;;;;;;;2.53;93.52;101190.22;5062501;28;20029;-78
2022/01/07 02:13:59;;;;;;;13.25;5.50;;;;;;;2.19;96.03;101208.25;5064489;28;20043;-77
2022/01/07 02:16:26;;;;;;;12.02;5.50;;;;;;;2.19;95.77;101188.88;5065446;28;20063;-78
2022/01/07 02:18:51;;;;;;;18.05;6.90;;;;;;;2.10;95.32;101195.38;5062699;28;20024;-77
2022/01/07 02:21:16;;;;;;;16.88;6.13;;;;;;;2.22;95.25;101199.34;5064315;28;20065;-77
2022/01/07 02:23:42;;;;;;;15.77;6.72;;;;;;;2.43;94.05;101163.19;5063676;28;20069;-78
2022/01/07 02:26:07;;;;;;;18.02;6.63;;;;;;;2.08;95.58;101163.63;5064910;28;20119;-78
2022/01/07 02:28:36;;;;;;;11.10;4.88;;;;;;;2.09;96.07;101197.13;5058679;28;20041;-74
2022/01/07 02:31:01;;;;;;;14.77;5.35;;;;;;;2.27;95.58;101191.22;5059305;28;20032;-78
2022/01/07 02:33:26;;;;;;;16.98;6.93;;;;;;;2.44;94.32;101162.28;5061048;28;20469;-78
2022/01/07 02:35:52;;;;;;;17.48;6.30;;;;;;;2.24;94.70;101161.25;5059988;28;20043;-77
2022/01/07 02:38:18;;;;;;;15.43;5.30;;;;;;;2.73;91.98;101168.22;5045755;28;20074;-75
2022/01/07 02:40:43;;;;;;;12.63;5.45;;;;;;;2.61;92.27;101160.78;5061792;28;20546;-79
2022/01/07 02:43:08;;;;;;;12.85;4.78;;;;;;;2.36;93.28;101149.31;5063746;28;20033;-79
2022/01/07 02:45:34;;;;;;;11.13;5.30;;;;;;;2.42;92.49;101169.41;5060673;28;20028;-77
2022/01/07 02:48:02;;;;;;;12.77;5.93;;;;;;;2.54;92.35;101153.06;5061905;28;20086;-78
2022/01/07 02:50:34;;;;;;;14.70;5.57;;;;;;;2.62;92.58;101162.50;5057393;28;20035;-76
2022/01/07 02:53:00;;;;;;;9.63;4.40;;;;;;;2.60;92.72;101162.56;5041377;28;20247;-75
2022/01/07 02:55:26;;;;;;;10.45;5.03;;;;;;;2.42;93.11;101160.63;5054692;28;20052;-75
2022/01/07 02:57:52;;;;;;;13.48;5.07;;;;;;;2.51;93.25;101154.97;5060590;28;20040;-75
2022/01/07 03:00:18;;;;;;;14.32;5.95;;;;;;;2.42;95.35;101152.66;5041283;28;20025;-78
2022/01/07 03:02:48;;;;;;;11.25;4.70;;;;;;;2.27;97.30;101151.47;5063915;28;20033;-79
2022/01/07 03:05:14;;;;;;;24.88;6.20;;;;;;;2.33;97.61;101128.25;5062130;28;20031;-78
2022/01/07 03:07:41;;;;;;;9.63;5.13;;;;;;;2.48;96.90;101144.50;5061960;28;20032;-78
2022/01/07 03:10:10;;;;;;;18.30;6.65;;;;;;;2.37;98.38;101152.84;5063857;28;20036;-79
2022/01/07 03:12:36;;;;;;;14.50;4.97;;;;;;;1.94;100.00;101136.78;5061193;28;20070;-78
2022/01/07 03:15:04;;;;;;;12.95;5.70;;;;;;;2.21;100.00;101140.19;5046841;28;20320;-74
2022/01/07 03:17:29;;;;;;;9.07;5.30;;;;;;;1.68;100.00;101132.44;5065162;28;20344;-76
2022/01/07 03:19:55;;;;;;;11.07;5.40;;;;;;;1.93;100.00;101132.41;5045970;28;20118;-76
2022/01/07 03:22:20;;;;;;;14.13;6.38;;;;;;;1.80;100.00;101140.78;5064479;28;20115;-76
2022/01/07 03:24:45;;;;;;;14.70;7.55;;;;;;;2.06;100.00;101116.94;5049129;28;20065;-76
2022/01/07 03:27:11;;;;;;;12.93;5.28;;;;;;;1.76;100.00;101118.00;5061943;28;20029;-77
2022/01/07 03:29:36;;;;;;;10.23;5.85;;;;;;;1.57;100.00;101103.69;5047054;28;20401;-79
2022/01/07 03:32:02;;;;;;;17.00;7.93;;;;;;;1.99;100.00;101120.72;5065856;28;20358;-77
2022/01/07 03:34:27;;;;;;;19.08;8.32;;;;;;;2.12;100.00;101111.38;5066081;28;20324;-77
2022/01/07 03:36:52;;;;;;;17.63;7.10;;;;;;;1.88;100.00;101103.44;5062612;28;20142;-74
2022/01/07 03:39:17;;;;;;;16.58;7.85;;;;;;;1.58;100.00;101118.66;5062423;28;20029;-73
2022/01/07 03:41:44;;;;;;;15.82;8.40;;;;;;;1.75;100.00;101100.38;5064743;28;20032;-74
2022/01/07 03:44:10;;;;;;;10.52;7.70;;;;;;;1.76;100.00;101112.69;5066532;28;20024;-72
2022/01/07 03:46:35;;;;;;;19.52;7.97;;;;;;;1.75;100.00;101113.63;5065359;28;20028;-73
2022/01/07 03:49:00;;;;;;;17.08;7.13;;;;;;;1.69;100.00;101102.41;5066610;28;20120;-74
2022/01/07 03:51:26;;;;;;;12.95;6.90;;;;;;;1.27;100.00;101094.16;5061537;28;20109;-71
2022/01/07 03:53:51;;;;;;;17.58;9.30;;;;;;;1.80;100.00;101097.59;5062988;28;20039;-72
2022/01/07 03:56:18;;;;;;;16.30;7.60;;;;;;;1.54;100.00;101087.94;5062956;28;20057;-74
2022/01/07 03:58:44;;;;;;;14.75;7.13;;;;;;;1.46;100.00;101081.13;5064729;28;20052;-74
2022/01/07 04:01:10;;;;;;;16.70;8.88;;;;;;;1.47;100.00;101092.59;5044224;28;20068;-72
2022/01/07 04:03:35;;;;;;;21.30;10.88;;;;;;;1.73;100.00;101062.50;5059868;28;20478;-76
2022/01/07 04:06:00;;;;;;;16.25;9.20;;;;;;;1.55;100.00;101079.06;5062347;28;20021;-73
2022/01/07 04:08:26;;;;;;;13.43;7.03;;;;;;;1.30;100.00;101067.59;5062394;28;20021;-79
2022/01/07 04:10:51;;;;;;;16.27;8.63;;;;;;;1.39;100.00;101069.06;5045865;28;20028;-73
2022/01/07 04:13:17;;;;;;;19.35;7.97;;;;;;;1.37;100.00;101065.59;5063548;28;20516;-73
2022/01/07 04:15:42;;;;;;;23.67;9.35;;;;;;;1.59;100.00;101052.44;5065277;28;20470;-74
2022/01/07 04:18:07;;;;;;;15.70;5.85;;;;;;;1.36;100.00;101077.09;5060936;28;20482;-75
2022/01/07 04:20:34;;;;;;;16.90;7.88;;;;;;;1.44;100.00;101042.41;5063224;28;20032;-77
2022/01/07 04:23:01;;;;;;;19.58;9.82;;;;;;;1.82;100.00;101071.03;5061740;28;20032;-76
2022/01/07 04:25:26;;;;;;;17.65;7.72;;;;;;;1.53;100.00;101079.16;5047307;28;20028;-70
2022/01/07 04:28:04;;;;;;;17.63;9.35;;;;;;;1.68;100.00;101083.03;5063210;28;20481;-76
2022/01/07 04:30:38;;;;;;;14.40;8.35;;;;;;;1.44;100.00;101066.22;5065264;28;20028;-74
2022/01/07 04:33:04;;;;;;;14.20;5.57;;;;;;;1.28;100.00;101058.84;5060014;28;20288;-72
2022/01/07 04:35:30;;;;;;;14.68;7.70;;;;;;;1.49;100.00;101072.22;5061336;28;20078;-72
2022/01/07 04:37:56;;;;;;;19.33;9.65;;;;;;;1.57;100.00;101067.53;5065131;28;20043;-72
2022/01/07 04:40:22;;;;;;;19.85;7.15;;;;;;;1.56;100.00;101080.81;5066326;28;20024;-71
2022/01/07 04:42:48;;;;;;;17.40;8.73;;;;;;;1.68;100.00;101063.59;5059369;28;20028;-71
2022/01/07 04:45:14;;;;;;;15.98;9.32;;;;;;;1.59;100.00;101051.59;5061840;28;20031;-76
2022/01/07 04:47:39;;;;;;;17.63;10.07;;;;;;;1.83;100.00;101070.13;5062999;28;20028;-72
2022/01/07 04:50:08;;;;;;;11.60;6.80;;;;;;;1.57;100.00;101062.25;5065709;28;20035;-73
2022/01/07 04:52:33;;;;;;;18.30;10.15;;;;;;;1.67;100.00;101054.81;5060136;28;20024;-75
2022/01/07 04:54:59;;;;;;;21.08;10.88;;;;;;;1.70;100.00;101062.66;5065509;28;20363;-71
2022/01/07 04:57:24;;;;;;;17.30;9.30;;;;;;;1.77;100.00;101063.28;5062143;28;20025;-72
2022/01/07 04:59:49;;;;;;;19.48;8.20;;;;;;;1.57;100.00;101042.84;5058771;28;20031;-78
2022/01/07 05:02:15;;;;;;;13.52;8.13;;;;;;;1.52;100.00;101036.84;5062588;28;20056;-73
2022/01/07 05:04:40;;;;;;;15.55;8.05;;;;;;;1.62;100.00;101039.09;5063598;28;20095;-75
2022/01/07 05:07:05;;;;;;;13.30;9.00;;;;;;;1.88;100.00;101052.28;5063733;28;20525;-74
2022/01/07 05:09:31;;;;;;;15.35;10.68;;;;;;;1.95;100.00;101035.25;5062902;28;20099;-76
2022/01/07 05:11:56;;;;;;;16.00;10.10;;;;;;;1.99;100.00;101039.47;5064913;28;20134;-71
2022/01/07 05:14:21;;;;;;;13.35;7.93;;;;;;;2.07;100.00;101024.16;5061778;28;20134;-71
2022/01/07 05:16:47;;;;;;;14.98;10.40;;;;;;;2.17;100.00;101022.00;5064962;28;20088;-71
2022/01/07 05:19:12;;;;;;;14.77;9.00;;;;;;;1.84;100.00;100998.59;5060828;28;20027;-73
2022/01/07 05:21:38;;;;;;;18.17;11.20;;;;;;;2.20;100.00;101029.81;5063808;28;20040;-72
2022/01/07 05:24:04;;;;;;;14.20;7.80;;;;;;;1.76;100.00;101020.03;5058979;28;20043;-71
2022/01/07 05:26:29;;;;;;;14.85;8.73;;;;;;;1.91;100.00;101037.13;5062436;28;20328;-71
2022/01/07 05:28:55;;;;;;;15.20;8.88;;;;;;;1.88;100.00;101028.44;5058937;28;20065;-70
2022/01/07 05:31:25;;;;;;;10.68;7.03;;;;;;;2.01;100.00;101026.19;5046588;28;20115;-70
2022/01/07 05:33:51;;;;;;;19.50;10.90;;;;;;;2.35;100.00;101027.50;5044203;28;20085;-71
2022/01/07 05:36:17;;;;;;;17.00;10.80;;;;;;;2.05;100.00;101015.41;5063683;28;20103;-71
2022/01/07 05:38:43;;;;;;;16.05;7.95;;;;;;;2.09;100.00;101013.50;5059246;28;20115;-71
2022/01/07 05:41:08;;;;;;;12.85;8.40;;;;;;;2.27;100.00;101011.88;5064399;28;20456;-73
2022/01/07 05:43:33;;;;;;;12.00;7.68;;;;;;;2.32;100.00;101017.88;5060371;28;20028;-72
2022/01/07 05:45:59;;;;;;;17.70;12.30;;;;;;;2.44;100.00;101023.63;5044823;28;20064;-76
2022/01/07 05:48:24;;;;;;;14.93;8.70;;;;;;;2.23;100.00;101012.97;5061847;28;20171;-71
2022/01/07 05:50:50;;;;;;;21.60;12.23;;;;;;;2.20;100.00;101024.53;5059375;28;20094;-72
2022/01/07 05:53:15;;;;;;;16.23;9.02;;;;;;;2.47;100.00;101004.94;5061117;28;20143;-70
2022/01/07 05:55:40;;;;;;;17.88;13.73;;;;;;;2.42;100.00;101010.41;5058148;28;20071;-76
2022/01/07 05:58:06;;;;;;;13.27;7.80;;;;;;;2.41;100.00;101008.69;5062156;28;20061;-74
2022/01/07 06:00:31;;;;;;;12.65;7.97;;;;;;;2.61;100.00;101005.22;5062942;28;20081;-71
2022/01/07 06:02:56;;;;;;;7.28;4.97;;;;;;;2.46;100.00;101003.22;5055172;28;20360;-70
2022/01/07 06:05:22;;;;;;;19.83;11.18;;;;;;;2.54;100.00;101009.03;5059400;28;20040;-74
2022/01/07 06:07:47;;;;;;;17.23;10.52;;;;;;;2.53;100.00;101008.19;5059771;28;20028;-71
2022/01/07 06:10:12;;;;;;;20.15;12.25;;;;;;;2.75;100.00;101003.78;5063097;28;20036;-72
2022/01/07 06:12:39;;;;;;;17.15;13.15;;;;;;;2.78;100.00;100996.56;5062780;28;20087;-72
2022/01/07 06:15:05;;;;;;;13.15;8.25;;;;;;;2.44;100.00;100991.81;5056886;28;20421;-72
2022/01/07 06:17:30;;;;;;;19.05;9.38;;;;;;;2.50;100.00;101002.16;5062645;28;20075;-71
2022/01/07 06:19:55;;;;;;;18.85;9.75;;;;;;;2.44;100.00;100990.00;5057495;28;20024;-74
2022/01/07 06:22:21;;;;;;;15.75;9.95;;;;;;;2.42;100.00;100991.84;5077866;28;20470;-70
2022/01/07 06:24:46;;;;;;;17.65;9.40;;;;;;;2.64;100.00;100989.19;5057987;28;20735;-72
2022/01/07 06:27:11;;;;;;;19.10;11.80;;;;;;;2.65;100.00;100996.22;5058747;28;20032;-73
2022/01/07 06:29:38;;;;;;;15.95;9.02;;;;;;;2.53;100.00;101020.56;5061928;28;20127;-72
2022/01/07 06:32:04;;;;;;;17.75;10.27;;;;;;;2.60;100.00;101006.13;5062406;28;20028;-72
2022/01/07 06:34:30;;;;;;;15.18;8.88;;;;;;;2.58;100.00;101021.25;5067432;28;20104;-71
2022/01/07 06:36:55;;;;;;;24.20;10.57;;;;;;;2.55;100.00;101006.34;5059763;28;20116;-69
2022/01/07 06:39:22;;;;;;;17.13;11.75;;;;;;;2.75;100.00;101004.63;5064252;28;20342;-74
2022/01/07 06:41:48;;;;;;;18.67;10.82;;;;;;;2.79;100.00;101018.63;5063437;28;20459;-71
2022/01/07 06:44:14;;;;;;;18.58;11.60;;;;;;;2.75;100.00;101012.59;5066260;28;20367;-73
2022/01/07 06:46:40;;;;;;;23.02;14.63;;;;;;;3.00;100.00;101012.41;5057111;28;20036;-73
2022/01/07 06:49:05;;;;;;;18.45;9.75;;;;;;;2.76;100.00;101006.34;5059936;28;20033;-72
2022/01/07 06:51:31;;;;;;;21.80;11.50;;;;;;;2.91;100.00;101020.75;5058855;28;20029;-71
2022/01/07 06:53:58;;;;;;;18.08;9.77;;;;;;;2.86;100.00;101036.00;5061397;28;20082;-69
2022/01/07 06:56:23;;;;;;;17.15;10.45;;;;;;;2.79;100.00;101011.53;5055831;28;20128;-71
2022/01/07 06:58:49;;;;;;;20.50;12.40;;;;;;;2.98;100.00;101034.59;5063558;28;20115;-71
2022/01/07 07:01:14;;;;;;;18.67;11.93;;;;;;;2.89;100.00;101024.41;5058711;28;20116;-73
2022/01/07 07:03:40;;;;;;;15.70;8.88;;;;;;;2.82;100.00;101032.63;5064272;28;20119;-73
2022/01/07 07:06:06;;;;;;;16.10;9.18;;;;;;;2.81;100.00;101025.59;5062132;28;20478;-71
2022/01/07 07:08:31;;;;;;;15.00;7.63;;;;;;;2.95;100.00;101048.88;5060392;28;20029;-71
2022/01/07 07:10:56;;;;;;;26.70;14.18;;;;;;;2.90;100.00;101026.97;5062060;28;20067;-71
2022/01/07 07:13:22;;;;;;;16.70;10.40;;;;;;;3.01;100.00;101034.47;5056314;28;20123;-74
2022/01/07 07:15:47;;;;;;;15.02;11.07;;;;;;;2.90;100.00;101023.50;5060730;28;20032;-74
2022/01/07 07:18:14;;;;;;;21.02;13.55;;;;;;;2.98;100.00;101039.91;5038370;28;20036;-71
2022/01/07 07:20:39;;;;;;;23.05;12.90;;;;;;;2.91;100.00;101027.88;5058286;28;20040;-73
2022/01/07 07:23:04;;;;;;;20.80;9.60;;;;;;;2.96;100.00;101036.47;5059195;28;20055;-72
2022/01/07 07:25:30;;;;;;;20.25;11.48;;;;;;;2.97;100.00;101032.88;5043448;28;20028;-72
2022/01/07 07:27:55;;;;;;;19.58;11.70;;;;;;;3.00;100.00;101016.84;5058850;28;20032;-76
2022/01/07 07:30:20;;;;;;;22.02;13.15;;;;;;;3.08;100.00;101024.47;5061898;28;20052;-73
2022/01/07 07:32:47;;;;;;;20.80;10.90;;;;;;;2.97;100.00;101024.94;5062739;28;20025;-73
2022/01/07 07:37:41;;;;;;;23.50;12.85;;;;;;;3.09;100.00;101024.41;5061751;28;20501;-81
2022/01/07 07:40:07;;;;;;;17.63;9.50;;;;;;;3.04;100.00;101037.00;5065249;28;20215;-72
2022/01/07 07:42:32;;;;;;;17.85;12.40;;;;;;;3.01;100.00;101023.88;5060439;28;20060;-73
2022/01/07 07:44:58;;;;;;;21.48;13.80;;;;;;;3.20;100.00;101028.38;5061834;28;20071;-76
2022/01/07 07:47:23;;;;;;;24.08;14.70;;;;;;;3.30;100.00;101024.38;5059069;28;20068;-74
2022/01/07 07:49:48;;;;;;;20.27;10.10;;;;;;;3.17;100.00;101037.34;5060140;28;20451;-72
2022/01/07 07:52:14;;;;;;;20.65;11.55;;;;;;;3.27;100.00;101033.34;5066509;28;20032;-75
2022/01/07 07:54:39;;;;;;;14.35;9.38;;;;;;;3.19;100.00;101018.69;5062809;28;20137;-73
2022/01/07 07:57:05;;;;;;;26.98;13.18;;;;;;;3.19;100.00;101016.03;5058164;28;20039;-74
2022/01/07 07:59:30;;;;;;;22.50;11.70;;;;;;;3.41;100.00;101029.22;5045049;28;20044;-72
2022/01/07 08:01:55;;;;;;;20.10;10.05;;;;;;;3.27;100.00;101008.59;5063459;28;20423;-72
2022/01/07 08:04:21;;;;;;;18.00;9.90;;;;;;;3.33;100.00;101007.44;5063069;28;20127;-72
2022/01/07 08:06:47;;;;;;;24.40;12.95;;;;;;;3.40;100.00;100998.28;5063430;28;20063;-73
2022/01/07 08:09:13;;;;;;;26.55;14.70;;;;;;;3.64;100.00;101011.38;5060847;28;20379;-71
2022/01/07 08:11:49;;;;;;;26.10;11.30;;;;;;;3.43;100.00;101008.78;5065473;28;20037;-72
2022/01/07 08:16:59;;;;;;;21.67;13.00;;;;;;;3.55;100.00;101010.88;5064028;28;20035;-77
2022/01/07 08:19:25;;;;;;;24.60;13.15;;;;;;;3.57;100.00;101021.41;5040938;28;20028;-72
2022/01/07 08:21:50;;;;;;;16.35;9.45;;;;;;;3.39;100.00;101007.19;5062227;28;20032;-71
2022/01/07 08:24:15;;;;;;;18.88;8.68;;;;;;;3.47;100.00;101004.19;5061156;28;20033;-72
2022/01/07 08:26:41;;;;;;;21.48;12.38;;;;;;;3.54;100.00;101005.63;5058067;28;20048;-74
2022/01/07 08:29:09;;;;;;;17.42;9.43;;;;;;;3.37;100.00;101009.91;5059622;28;20482;-75
2022/01/07 08:36:50;;;;;;;23.27;12.30;;;;;;;3.64;100.00;100995.44;5060648;28;20112;-75
2022/01/07 08:39:15;;;;;;;23.42;10.68;;;;;;;3.55;100.00;100997.63;5065672;28;20024;-75
2022/01/07 08:41:42;;;;;;;30.38;13.70;;;;;;;3.69;100.00;101009.38;5059856;28;20028;-73
2022/01/07 08:44:08;;;;;;;18.80;10.43;;;;;;;3.65;100.00;101010.44;5064446;28;20119;-75
2022/01/07 08:46:33;;;;;;;21.77;10.73;;;;;;;3.59;100.00;100987.69;5061354;28;20127;-77
2022/01/07 08:48:59;;;;;;;18.83;11.75;;;;;;;3.70;100.00;101004.00;5064862;28;20032;-76
2022/01/07 08:51:26;;;;;;;21.48;11.82;;;;;;;3.64;100.00;101000.75;5059862;28;20408;-74
2022/01/07 08:53:52;;;;;;;26.88;12.73;;;;;;;3.74;100.00;100997.59;5061487;28;20437;-74
2022/01/07 08:56:17;;;;;;;20.73;10.50;;;;;;;3.70;100.00;100995.16;5062063;28;20111;-75
2022/01/07 08:58:43;;;;;;;20.88;10.27;;;;;;;3.55;100.00;100988.78;5065150;28;20033;-74
2022/01/07 09:01:09;;;;;;;21.88;11.20;;;;;;;3.70;100.00;100997.81;5061698;28;20094;-74
2022/01/07 09:03:34;;;;;;;29.50;13.32;;;;;;;3.82;100.00;100999.03;5066420;28;20055;-79
2022/01/07 09:05:59;;;;;;;18.73;13.00;;;;;;;3.92;100.00;101005.66;5061149;28;20401;-75
2022/01/07 09:08:25;;;;;;;17.15;9.38;;;;;;;3.81;100.00;101007.94;5049706;28;20468;-72
2022/01/07 09:10:51;;;;;;;24.48;12.43;;;;;;;3.78;100.00;101008.97;5059532;28;20489;-79
2022/01/07 09:13:17;;;;;;;21.80;12.57;;;;;;;3.99;100.00;101019.50;5064347;28;20657;-71
2022/01/07 09:15:42;;;;;;;24.77;12.80;;;;;;;3.91;100.00;101001.28;5037281;28;20021;-75
2022/01/07 09:18:11;;;;;;;18.75;8.77;;;;;;;3.86;100.00;101004.13;5048266;28;20383;-72
2022/01/07 09:20:41;;;;;;;30.08;12.43;;;;;;;4.04;100.00;100999.75;5046099;28;20182;-73
2022/01/07 09:23:07;;;;;;;21.83;11.18;;;;;;;3.97;100.00;101002.78;5057089;28;20037;-72
2022/01/07 09:25:33;;;;;;;23.67;11.55;;;;;;;3.86;100.00;101011.25;5062629;28;20391;-76
2022/01/07 09:27:58;;;;;;;16.02;9.85;;;;;;;3.88;100.00;101018.19;5061520;28;20020;-72
2022/01/07 09:30:24;;;;;;;19.67;11.80;;;;;;;4.05;100.00;101017.41;5062742;28;20029;-72
2022/01/07 09:32:49;;;;;;;16.67;9.18;;;;;;;3.97;100.00;101008.97;5060837;28;20068;-72
2022/01/07 09:35:16;;;;;;;26.60;13.45;;;;;;;3.99;100.00;101009.72;5063645;28;20469;-74
2022/01/07 09:37:42;;;;;;;19.10;9.75;;;;;;;3.94;100.00;101016.19;5060740;28;20032;-72
2022/01/07 09:40:07;;;;;;;14.57;9.25;;;;;;;3.82;100.00;101010.53;5065471;28;20058;-72
2022/01/07 09:42:33;;;;;;;17.65;9.60;;;;;;;4.05;100.00;101016.56;5058253;28;20356;-76
2022/01/07 09:44:58;;;;;;;15.75;8.25;;;;;;;4.14;100.00;101013.44;5061914;28;20036;-73
2022/01/07 09:47:24;;;;;;;20.23;10.07;;;;;;;4.08;100.00;101011.09;5058947;28;20028;-75
2022/01/07 09:49:49;;;;;;;21.60;11.40;;;;;;;4.15;100.00;100998.38;5062726;28;20067;-76
2022/01/07 09:52:15;;;;;;;19.90;12.35;;;;;;;4.26;100.00;101006.66;5055502;28;20056;-73
2022/01/07 09:54:40;;;;;;;21.42;11.65;;;;;;;4.33;100.00;101005.44;5060335;28;20057;-75
2022/01/07 09:57:07;;;;;;;19.20;11.35;;;;;;;4.35;100.00;101010.69;5060982;28;20121;-74
2022/01/07 09:59:36;;;;;;;14.43;8.32;;;;;;;4.13;100.00;101002.91;5061407;28;20374;-73
2022/01/07 10:02:08;;;;;;;19.48;9.98;;;;;;;4.44;100.00;101007.56;5057217;28;20570;-78
2022/01/07 10:04:38;;;;;;;15.80;10.55;;;;;;;4.37;100.00;100998.16;5058134;28;20035;-75
2022/01/07 10:07:21;;;;;;;23.73;12.63;;;;;;;4.57;100.00;100991.88;5058855;28;20115;-76
2022/01/07 10:10:07;;;;;;;24.00;12.00;;;;;;;4.85;100.00;100984.31;5057786;28;20073;-74
2022/01/07 10:12:48;;;;;;;24.23;11.80;;;;;;;4.57;100.00;100994.53;5059693;28;20029;-77
2022/01/07 10:15:16;;;;;;;24.40;10.57;;;;;;;4.84;100.00;100991.41;5055382;28;20139;-78
2022/01/07 10:17:54;;;;;;;17.40;8.50;;;;;;;4.58;100.00;100966.16;5058867;28;20377;-75
2022/01/07 10:20:28;;;;;;;23.38;9.50;;;;;;;4.58;100.00;100990.94;5044162;28;20074;-74
2022/01/07 10:22:57;;;;;;;15.68;8.40;;;;;;;4.74;100.00;100990.16;5056947;28;20051;-75
2022/01/07 10:25:25;;;;;;;12.82;7.95;;;;;;;4.75;100.00;100978.59;5058691;28;20431;-77
2022/01/07 10:27:51;;;;;;;17.05;8.50;;;;;;;4.52;100.00;100991.22;5041910;28;20037;-76
2022/01/07 10:30:25;;;;;;;11.18;6.25;;;;;;;4.31;100.00;100985.19;5057547;28;21001;-72
2022/01/07 10:32:51;;;;;;;12.73;8.73;;;;;;;4.43;100.00;100968.63;5062051;28;20386;-76
2022/01/07 10:35:18;;;;;;;18.08;10.48;;;;;;;4.60;100.00;100957.16;5054013;28;20138;-76
2022/01/07 10:37:51;;;;;;;12.27;7.45;;;;;;;4.49;100.00;100957.69;5058301;28;20031;-72
2022/01/07 10:40:27;;;;;;;10.43;7.90;;;;;;;4.80;100.00;100976.53;5054924;28;20025;-73
2022/01/07 10:42:55;;;;;;;14.32;8.43;;;;;;;5.43;99.47;100951.06;5062490;28;20028;-77
2022/01/07 10:45:21;;;;;;;18.27;9.40;;;;;;;5.36;97.72;100961.19;5060010;28;20309;-78
2022/01/07 10:47:50;;;;;;;11.38;7.13;;;;;;;4.91;99.13;100950.25;5057453;28;20550;-73
2022/01/07 10:50:23;;;;;;;9.60;6.03;;;;;;;5.11;98.46;100953.66;5057927;28;20168;-77
2022/01/07 10:52:49;;;;;;;16.10;6.67;;;;;;;5.08;98.69;100945.81;5057510;28;20038;-74
2022/01/07 10:55:20;;;;;;;14.13;8.18;;;;;;;5.39;96.68;100942.38;5059223;28;20672;-76
2022/01/07 10:57:49;;;;;;;13.88;7.13;;;;;;;5.38;96.88;100930.03;5061276;28;20028;-76
2022/01/07 11:00:16;;;;;;;9.38;6.25;;;;;;;5.15;98.14;100943.72;5051180;28;20406;-75
2022/01/07 11:02:42;;;;;;;13.40;6.65;;;;;;;5.18;98.44;100948.84;5056774;28;20029;-75
2022/01/07 11:05:08;;;;;;;14.30;6.32;;;;;;;5.23;98.09;100942.34;5052853;28;20039;-75
2022/01/07 11:07:33;;;;;;;15.85;8.30;;;;;;;5.27;97.14;100924.41;5058346;28;20444;-76
2022/01/07 11:09:59;;;;;;;10.85;6.75;;;;;;;5.42;95.80;100929.84;5055429;28;20033;-75
2022/01/07 11:12:25;;;;;;;16.95;7.15;;;;;;;5.26;96.72;100936.00;5058667;28;20071;-76
2022/01/07 11:14:51;;;;;;;13.57;5.32;;;;;;;5.35;95.45;100931.97;5055098;28;20032;-75
2022/01/07 11:17:23;;;;;;;11.48;5.97;;;;;;;5.39;94.67;100918.44;5041609;28;20085;-73
2022/01/07 11:19:52;;;;;;;15.63;7.32;;;;;;;5.51;94.13;100927.53;5041667;28;20366;-76
2022/01/07 11:22:18;;;;;;;11.90;7.10;;;;;;;5.43;93.93;100921.78;5044107;28;20025;-76